createdAt,value
2023-04-08T00:01:37.609Z,13.323718
2023-04-08T00:06:39.050Z,13.536882
2023-04-08T00:11:40.926Z,13.493188
2023-04-08T00:16:42.553Z,13.879894
2023-04-08T00:21:43.857Z,14.091294
2023-04-08T00:26:45.141Z,13.898768
2023-04-08T00:31:46.491Z,13.480488
2023-04-08T00:36:47.769Z,11.635722
2023-04-08T00:41:49.076Z,13.757646
2023-04-08T00:46:50.508Z,14.000826
2023-04-08T00:51:51.888Z,13.303242
2023-04-08T00:56:53.143Z,13.326188
2023-04-08T01:01:54.960Z,13.700274
2023-04-08T01:06:56.354Z,12.569306
2023-04-08T01:11:57.809Z,12.810098
2023-04-08T01:16:59.187Z,12.812038
2023-04-08T01:22:00.605Z,12.900566
2023-04-08T01:27:01.863Z,13.141438
2023-04-08T01:32:03.469Z,13.018756
2023-04-08T01:37:04.879Z,12.704174
2023-04-08T01:42:06.168Z,13.274828
2023-04-08T01:47:07.966Z,12.508502
2023-04-08T01:52:09.344Z,11.711292
2023-04-08T01:57:10.821Z,12.766066
2023-04-08T02:02:12.250Z,12.810818
2023-04-08T02:07:13.617Z,12.927488
2023-04-08T02:12:14.938Z,12.937204
2023-04-08T02:17:16.418Z,13.217008
2023-04-08T02:22:17.674Z,12.318122
2023-04-08T02:27:18.949Z,12.241494
2023-04-08T02:32:20.356Z,12.198858
2023-04-08T02:37:21.843Z,12.219158
2023-04-08T02:42:23.133Z,12.303724
2023-04-08T02:47:24.661Z,12.288106
2023-04-08T02:52:25.958Z,12.134526
2023-04-08T02:57:27.195Z,12.502938
2023-04-08T03:02:28.753Z,11.586236
2023-04-08T03:07:30.080Z,11.836634
2023-04-08T03:12:31.467Z,12.038046
2023-04-08T03:17:33.002Z,12.518652
2023-04-08T03:22:34.507Z,12.493942
2023-04-08T03:27:35.747Z,11.409872
2023-04-08T03:32:37.427Z,11.951812
2023-04-08T03:37:39.215Z,11.435898
2023-04-08T03:42:40.561Z,12.021274
2023-04-08T03:47:42.134Z,11.041636
2023-04-08T03:52:43.651Z,11.0962
2023-04-08T03:57:44.961Z,11.037946
2023-04-08T04:02:46.522Z,11.100052
2023-04-08T04:07:47.917Z,11.23963
2023-04-08T04:12:49.246Z,10.795648
2023-04-08T04:17:50.770Z,11.383832
2023-04-08T04:22:52.107Z,11.57211
2023-04-08T04:27:53.590Z,11.451626
2023-04-08T04:32:55.032Z,11.958706
2023-04-08T04:37:56.547Z,11.220212
2023-04-08T04:42:57.928Z,11.939464
2023-04-08T04:47:59.514Z,11.929476
2023-04-08T04:53:00.838Z,11.782952
2023-04-08T04:58:02.232Z,12.413338
2023-04-08T05:03:03.736Z,12.013498
2023-04-08T05:08:05.073Z,12.214748
2023-04-08T05:13:06.374Z,12.421996
2023-04-08T05:18:07.794Z,12.674444
2023-04-08T05:23:09.202Z,12.387746
2023-04-08T05:28:10.549Z,13.080906
2023-04-08T05:33:11.880Z,11.73667
2023-04-08T05:38:13.144Z,10.98835
2023-04-08T05:43:14.581Z,12.303658
2023-04-08T05:48:16.568Z,12.424032
2023-04-08T05:53:18.246Z,13.106498
2023-04-08T05:58:19.971Z,13.423388
2023-04-08T06:03:22.191Z,14.2755
2023-04-08T06:08:23.967Z,15.531294
2023-04-08T06:13:25.618Z,15.83874
2023-04-08T06:18:27.396Z,16.054726
2023-04-08T06:23:29.291Z,16.091798
2023-04-08T06:28:31.282Z,16.94653
2023-04-08T06:33:32.938Z,16.559024
2023-04-08T06:38:34.596Z,17.640776
2023-04-08T06:43:36.170Z,18.287976
2023-04-08T06:48:37.548Z,17.910986
2023-04-08T06:53:39.090Z,17.919712
2023-04-08T06:58:40.350Z,18.433374
2023-04-08T07:03:41.894Z,19.13374
2023-04-08T07:08:43.248Z,19.645272
2023-04-08T07:13:44.596Z,19.497608
2023-04-08T07:18:46.039Z,20.327822
2023-04-08T07:23:47.369Z,20.22031
2023-04-08T07:28:48.883Z,20.990886
2023-04-08T07:33:50.745Z,19.878506
2023-04-08T07:38:52.403Z,21.172352
2023-04-08T07:43:54.001Z,21.346626
2023-04-08T07:48:55.500Z,21.840586
2023-04-08T07:53:56.968Z,21.2743
2023-04-08T07:58:58.330Z,21.673748
2023-04-08T08:03:59.966Z,21.806974
2023-04-08T08:09:01.393Z,22.40618
2023-04-08T08:14:02.716Z,23.083832
2023-04-08T08:19:03.970Z,24.091958
2023-04-08T08:24:05.521Z,24.26763
2023-04-08T08:29:06.907Z,23.808096
2023-04-08T08:34:08.711Z,23.803428
2023-04-08T08:39:09.993Z,24.280128
2023-04-08T08:44:11.576Z,25.273938
2023-04-08T08:49:13.058Z,24.375278
2023-04-08T08:54:14.436Z,25.074044
2023-04-08T08:59:15.794Z,25.290276
2023-04-08T09:04:17.632Z,25.469042
2023-04-08T09:09:19.080Z,25.109312
2023-04-08T09:14:20.622Z,25.78459
2023-04-08T09:19:22.257Z,26.508244
2023-04-08T09:24:23.621Z,26.986926
2023-04-08T09:29:26.165Z,27.343576
2023-04-08T09:34:28.190Z,28.295444
2023-04-08T09:39:29.691Z,26.631158
2023-04-08T09:44:30.963Z,27.28775
2023-04-08T09:49:32.529Z,27.09992
2023-04-08T09:54:33.874Z,27.02047
2023-04-08T09:59:35.488Z,26.85321
2023-04-08T10:04:36.943Z,27.947858
2023-04-08T10:09:38.665Z,27.284196
2023-04-08T10:14:40.483Z,27.77703
2023-04-08T10:19:42.286Z,28.23301
2023-04-08T10:24:44.099Z,28.258602
2023-04-08T10:29:45.880Z,28.941874
2023-04-08T10:34:47.480Z,28.326586
2023-04-08T10:39:49.040Z,26.745508
2023-04-08T10:44:50.739Z,27.84169
2023-04-08T10:49:52.048Z,28.120654
2023-04-08T10:54:53.334Z,28.532696
2023-04-08T10:59:54.840Z,28.791564
2023-04-08T11:04:56.180Z,28.011866
2023-04-08T11:09:57.486Z,28.007008
2023-04-08T11:14:58.853Z,27.435822
2023-04-08T11:20:00.452Z,28.646138
2023-04-08T11:25:02.101Z,29.501798
2023-04-08T11:30:03.390Z,27.242904
2023-04-08T11:35:04.823Z,26.922036
2023-04-08T11:40:06.376Z,26.908588
2023-04-08T11:45:07.940Z,26.918508
2023-04-08T11:50:09.382Z,27.132148
2023-04-08T11:55:11.200Z,27.012762
2023-04-08T12:00:12.803Z,26.851012
2023-04-08T12:05:14.588Z,26.2105
2023-04-08T12:10:16.436Z,26.714584
2023-04-08T12:15:18.029Z,26.591426
2023-04-08T12:20:19.903Z,26.505124
2023-04-08T12:25:21.548Z,26.86754
2023-04-08T12:30:23.113Z,26.760924
2023-04-08T12:35:24.845Z,27.48394
2023-04-08T12:40:26.509Z,27.008556
2023-04-08T12:45:28.094Z,26.27539
2023-04-08T12:50:29.827Z,26.127996
2023-04-08T12:55:31.427Z,26.210988
2023-04-08T13:00:33.022Z,26.74487
2023-04-08T13:05:43.152Z,26.449542
2023-04-08T13:10:45.179Z,27.789392
2023-04-08T13:15:51.550Z,27.888478
2023-04-08T13:20:52.986Z,28.316396
2023-04-08T13:25:54.307Z,27.84059
2023-04-08T13:30:55.838Z,27.159274
2023-04-08T13:35:57.475Z,28.109174
2023-04-08T13:40:58.806Z,27.987346
2023-04-08T13:46:00.242Z,28.151756
2023-04-08T13:51:01.883Z,27.518366
2023-04-08T13:56:03.369Z,27.275566
2023-04-08T14:01:04.785Z,28.131008
2023-04-08T14:06:06.331Z,27.148472
2023-04-08T14:11:07.607Z,26.59011
2023-04-08T14:16:08.865Z,26.419282
2023-04-08T14:21:10.210Z,26.13839
2023-04-08T14:26:11.770Z,26.223784
2023-04-08T14:31:13.102Z,26.228602
2023-04-08T14:36:14.480Z,26.402346
2023-04-08T14:41:15.847Z,25.767818
2023-04-08T14:46:17.252Z,26.302556
2023-04-08T14:51:18.749Z,25.567666
2023-04-08T14:56:20.110Z,25.727218
2023-04-08T15:01:21.511Z,25.543634
2023-04-08T15:06:22.969Z,25.500334
2023-04-08T15:11:24.230Z,25.239472
2023-04-08T15:16:25.531Z,24.919908
2023-04-08T15:21:27.032Z,25.127116
2023-04-08T15:26:28.331Z,25.019658
2023-04-08T15:31:29.678Z,24.543406
2023-04-08T15:36:31.178Z,24.337962
2023-04-08T15:41:33.190Z,24.333538
2023-04-08T15:46:35.551Z,23.32742
2023-04-08T15:51:38.874Z,23.642126
2023-04-08T15:56:40.129Z,23.096832
2023-04-08T16:01:41.419Z,23.213992
2023-04-08T16:06:42.865Z,22.833514
2023-04-08T16:11:44.465Z,23.624472
2023-04-08T16:16:45.711Z,23.308002
2023-04-08T16:21:47.040Z,23.093046
2023-04-08T16:26:48.419Z,23.408444
2023-04-08T16:31:50.383Z,23.46469
2023-04-08T16:36:53.747Z,22.274596
2023-04-08T16:41:55.093Z,20.446474
2023-04-08T16:46:56.590Z,20.691636
2023-04-08T16:51:57.980Z,20.78034
2023-04-08T16:56:59.215Z,21.194606
2023-04-08T17:02:00.606Z,20.730024
2023-04-08T17:07:02.012Z,20.990438
2023-04-08T17:12:03.275Z,21.092332
2023-04-08T17:17:04.760Z,19.16324
2023-04-08T17:22:06.275Z,20.578696
2023-04-08T17:27:07.569Z,19.578822
2023-04-08T17:32:09.017Z,19.512806
2023-04-08T17:37:10.566Z,19.960344
2023-04-08T17:42:11.895Z,19.720936
2023-04-08T17:47:13.766Z,19.464322
2023-04-08T17:52:15.237Z,18.740046
2023-04-08T17:57:16.789Z,19.050762
2023-04-08T18:02:18.520Z,19.14256
2023-04-08T18:07:20.452Z,19.531844
2023-04-08T18:12:22.471Z,18.920114
2023-04-08T18:17:24.181Z,17.861742
2023-04-08T18:22:25.987Z,18.38527
2023-04-08T18:27:27.708Z,18.72573
2023-04-08T18:32:29.355Z,18.490488
2023-04-08T18:37:31.308Z,17.714404
2023-04-08T18:42:32.925Z,17.511634
2023-04-08T18:47:34.643Z,18.13042
2023-04-08T18:52:36.430Z,18.372826
2023-04-08T18:57:38.095Z,18.73394
2023-04-08T19:02:39.822Z,17.44517
2023-04-08T19:07:41.469Z,18.578582
2023-04-08T19:12:43.100Z,17.90701
2023-04-08T19:17:44.966Z,17.540768
2023-04-08T19:22:46.742Z,17.993598
2023-04-08T19:27:48.765Z,17.538122
2023-04-08T19:32:50.573Z,16.972922
2023-04-08T19:37:52.458Z,17.046008
2023-04-08T19:42:54.138Z,18.553858
2023-04-08T19:47:55.898Z,18.14825
2023-04-08T19:52:57.897Z,16.689658
2023-04-08T19:57:59.162Z,16.85332
2023-04-08T20:08:01.807Z,17.214786
2023-04-08T20:13:03.191Z,17.759862
2023-04-08T20:18:04.773Z,17.263596
2023-04-08T20:23:06.463Z,16.7947
2023-04-08T20:28:07.706Z,17.376576
2023-04-08T20:33:09.051Z,16.665124
2023-04-08T20:38:10.556Z,16.978038
2023-04-08T20:43:11.901Z,15.72972
2023-04-08T20:48:13.294Z,16.288556
2023-04-08T20:53:14.914Z,16.604998
2023-04-08T20:58:16.230Z,15.239384
2023-04-08T21:03:17.704Z,15.56025
2023-04-08T21:08:19.177Z,16.520622
2023-04-08T21:13:20.580Z,15.318034
2023-04-08T21:18:21.950Z,15.247336
2023-04-08T21:23:23.639Z,15.42564
2023-04-08T21:28:25.221Z,16.445678
2023-04-08T21:33:26.907Z,16.3884
2023-04-08T21:38:28.461Z,16.8843
2023-04-08T21:43:30.310Z,16.488842
2023-04-08T21:48:31.988Z,16.340988
2023-04-08T21:53:33.525Z,16.085894
2023-04-08T21:58:35.056Z,15.99126
2023-04-08T22:03:36.747Z,15.801924
2023-04-08T22:08:38.461Z,15.948638
2023-04-08T22:13:40.084Z,16.344706
2023-04-08T22:18:41.874Z,15.94378
2023-04-08T22:23:43.527Z,16.391304
2023-04-08T22:28:45.232Z,16.270196
2023-04-08T22:33:47.016Z,16.25493
2023-04-08T22:38:48.984Z,15.633512
2023-04-08T22:43:50.771Z,16.720366
2023-04-08T22:48:52.782Z,16.53871
2023-04-08T22:53:54.504Z,16.50005
2023-04-08T22:58:56.253Z,16.553894
2023-04-08T23:03:57.924Z,16.314066
2023-04-08T23:08:59.355Z,16.025604
2023-04-08T23:14:01.121Z,16.337636
2023-04-08T23:19:02.619Z,16.286004
2023-04-08T23:24:03.953Z,16.605364
2023-04-08T23:29:05.225Z,16.51974
2023-04-08T23:34:07.183Z,16.15651
2023-04-08T23:39:08.639Z,16.223774
2023-04-08T23:44:10.020Z,16.6645
2023-04-08T23:49:11.447Z,16.55593
2023-04-08T23:54:12.963Z,16.763802
2023-04-08T23:59:14.329Z,16.69054
